sensor_id;sensor_type;location;lat;lon;timestamp;pressure;altitude;pressure_sealevel;temperature;humidity
35331;BME280;21441;52.190;20.910;2022-12-18T00:02:02;101495.66;;;-4.44;100.00
35331;BME280;21441;52.190;20.910;2022-12-18T00:04:30;101499.97;;;-4.41;100.00
35331;BME280;21441;52.190;20.910;2022-12-18T00:06:57;101505.41;;;-4.50;100.00
35331;BME280;21441;52.190;20.910;2022-12-18T00:09:24;101507.09;;;-4.48;100.00
35331;BME280;21441;52.190;20.910;2022-12-18T00:11:51;101505.66;;;-4.28;100.00
35331;BME280;21441;52.190;20.910;2022-12-18T00:14:18;101511.88;;;-4.32;100.00
35331;BME280;21441;52.190;20.910;2022-12-18T00:16:47;101504.66;;;-4.24;100.00
35331;BME280;21441;52.190;20.910;2022-12-18T00:19:14;101506.53;;;-4.28;100.00
35331;BME280;21441;52.190;20.910;2022-12-18T00:21:42;101518.47;;;-4.21;100.00
35331;BME280;21441;52.190;20.910;2022-12-18T00:24:10;101516.13;;;-4.30;100.00
35331;BME280;21441;52.190;20.910;2022-12-18T00:26:39;101529.72;;;-4.20;100.00
35331;BME280;21441;52.190;20.910;2022-12-18T00:29:10;101519.56;;;-4.28;100.00
35331;BME280;21441;52.190;20.910;2022-12-18T00:31:39;101522.09;;;-4.26;100.00
35331;BME280;21441;52.190;20.910;2022-12-18T00:34:11;101523.69;;;-4.21;100.00
35331;BME280;21441;52.190;20.910;2022-12-18T00:36:38;101516.81;;;-4.23;100.00
35331;BME280;21441;52.190;20.910;2022-12-18T00:39:06;101529.72;;;-4.20;100.00
35331;BME280;21441;52.190;20.910;2022-12-18T00:41:33;101531.06;;;-4.07;100.00
35331;BME280;21441;52.190;20.910;2022-12-18T00:44:18;101532.97;;;-4.12;100.00
35331;BME280;21441;52.190;20.910;2022-12-18T00:46:46;101544.50;;;-4.19;100.00
35331;BME280;21441;52.190;20.910;2022-12-18T00:49:15;101542.75;;;-4.20;100.00
35331;BME280;21441;52.190;20.910;2022-12-18T00:51:43;101550.44;;;-4.16;100.00
35331;BME280;21441;52.190;20.910;2022-12-18T00:54:10;101556.50;;;-4.15;100.00
35331;BME280;21441;52.190;20.910;2022-12-18T00:56:38;101552.66;;;-4.02;100.00
35331;BME280;21441;52.190;20.910;2022-12-18T00:59:05;101553.81;;;-4.12;100.00
35331;BME280;21441;52.190;20.910;2022-12-18T01:01:33;101556.28;;;-4.07;100.00
35331;BME280;21441;52.190;20.910;2022-12-18T01:04:01;101560.53;;;-4.03;100.00
35331;BME280;21441;52.190;20.910;2022-12-18T01:06:29;101555.59;;;-4.12;100.00
35331;BME280;21441;52.190;20.910;2022-12-18T01:08:57;101561.94;;;-4.23;100.00
35331;BME280;21441;52.190;20.910;2022-12-18T01:11:24;101572.25;;;-4.18;100.00
35331;BME280;21441;52.190;20.910;2022-12-18T01:13:52;101573.69;;;-4.08;100.00
35331;BME280;21441;52.190;20.910;2022-12-18T01:16:20;101577.25;;;-4.10;100.00
35331;BME280;21441;52.190;20.910;2022-12-18T01:18:47;101578.31;;;-3.88;100.00
35331;BME280;21441;52.190;20.910;2022-12-18T01:21:15;101571.25;;;-4.14;100.00
35331;BME280;21441;52.190;20.910;2022-12-18T01:23:44;101577.25;;;-4.10;100.00
35331;BME280;21441;52.190;20.910;2022-12-18T01:26:13;101572.50;;;-3.98;100.00
35331;BME280;21441;52.190;20.910;2022-12-18T01:28:41;101583.16;;;-4.05;100.00
35331;BME280;21441;52.190;20.910;2022-12-18T01:31:11;101586.66;;;-4.06;100.00
35331;BME280;21441;52.190;20.910;2022-12-18T01:33:38;101582.56;;;-4.15;100.00
35331;BME280;21441;52.190;20.910;2022-12-18T01:36:06;101596.25;;;-4.07;100.00
35331;BME280;21441;52.190;20.910;2022-12-18T01:38:33;101594.56;;;-4.08;100.00
35331;BME280;21441;52.190;20.910;2022-12-18T01:41:02;101603.19;;;-4.06;100.00
35331;BME280;21441;52.190;20.910;2022-12-18T01:43:48;101605.69;;;-4.03;100.00
35331;BME280;21441;52.190;20.910;2022-12-18T01:46:16;101601.47;;;-4.07;100.00
35331;BME280;21441;52.190;20.910;2022-12-18T01:48:44;101604.75;;;-4.00;100.00
35331;BME280;21441;52.190;20.910;2022-12-18T01:51:13;101602.88;;;-3.95;100.00
35331;BME280;21441;52.190;20.910;2022-12-18T01:53:43;101606.78;;;-4.10;100.00
35331;BME280;21441;52.190;20.910;2022-12-18T01:56:17;101607.50;;;-4.06;100.00
35331;BME280;21441;52.190;20.910;2022-12-18T01:58:50;101610.19;;;-4.08;100.00
35331;BME280;21441;52.190;20.910;2022-12-18T02:01:21;101619.16;;;-4.18;100.00
35331;BME280;21441;52.190;20.910;2022-12-18T02:03:49;101621.56;;;-4.10;100.00
35331;BME280;21441;52.190;20.910;2022-12-18T02:06:20;101629.56;;;-4.17;100.00
35331;BME280;21441;52.190;20.910;2022-12-18T02:08:57;101629.44;;;-4.13;100.00
35331;BME280;21441;52.190;20.910;2022-12-18T02:11:36;101634.22;;;-3.98;100.00
35331;BME280;21441;52.190;20.910;2022-12-18T02:14:13;101640.81;;;-4.16;100.00
35331;BME280;21441;52.190;20.910;2022-12-18T02:16:48;101650.25;;;-4.10;100.00
35331;BME280;21441;52.190;20.910;2022-12-18T02:19:39;101651.22;;;-4.15;100.00
35331;BME280;21441;52.190;20.910;2022-12-18T02:22:23;101652.03;;;-4.12;100.00
35331;BME280;21441;52.190;20.910;2022-12-18T02:25:01;101657.03;;;-4.06;100.00
35331;BME280;21441;52.190;20.910;2022-12-18T02:27:34;101659.56;;;-4.02;100.00
35331;BME280;21441;52.190;20.910;2022-12-18T02:30:04;101670.22;;;-4.11;100.00
35331;BME280;21441;52.190;20.910;2022-12-18T02:32:32;101660.72;;;-4.13;100.00
35331;BME280;21441;52.190;20.910;2022-12-18T02:35:02;101666.03;;;-4.17;100.00
35331;BME280;21441;52.190;20.910;2022-12-18T02:37:32;101676.06;;;-4.03;100.00
35331;BME280;21441;52.190;20.910;2022-12-18T02:40:03;101674.44;;;-4.07;100.00
35331;BME280;21441;52.190;20.910;2022-12-18T02:42:32;101677.03;;;-4.05;100.00
35331;BME280;21441;52.190;20.910;2022-12-18T02:44:59;101681.31;;;-4.04;100.00
35331;BME280;21441;52.190;20.910;2022-12-18T02:47:30;101679.88;;;-4.15;100.00
35331;BME280;21441;52.190;20.910;2022-12-18T02:50:04;101678.72;;;-4.04;100.00
35331;BME280;21441;52.190;20.910;2022-12-18T02:52:38;101674.53;;;-4.10;100.00
35331;BME280;21441;52.190;20.910;2022-12-18T02:55:18;101688.16;;;-4.00;100.00
35331;BME280;21441;52.190;20.910;2022-12-18T02:57:55;101702.00;;;-3.98;100.00
35331;BME280;21441;52.190;20.910;2022-12-18T03:00:27;101701.13;;;-3.97;100.00
35331;BME280;21441;52.190;20.910;2022-12-18T03:02:59;101704.88;;;-4.07;100.00
35331;BME280;21441;52.190;20.910;2022-12-18T03:05:31;101710.78;;;-4.01;100.00
35331;BME280;21441;52.190;20.910;2022-12-18T03:08:03;101719.44;;;-4.00;100.00
35331;BME280;21441;52.190;20.910;2022-12-18T03:10:36;101723.81;;;-4.01;100.00
35331;BME280;21441;52.190;20.910;2022-12-18T03:13:10;101722.22;;;-4.06;100.00
35331;BME280;21441;52.190;20.910;2022-12-18T03:15:42;101723.78;;;-3.99;100.00
35331;BME280;21441;52.190;20.910;2022-12-18T03:18:13;101735.53;;;-3.84;100.00
35331;BME280;21441;52.190;20.910;2022-12-18T03:20:43;101731.63;;;-4.01;100.00
35331;BME280;21441;52.190;20.910;2022-12-18T03:23:14;101740.94;;;-3.90;100.00
35331;BME280;21441;52.190;20.910;2022-12-18T03:25:44;101740.38;;;-4.02;100.00
35331;BME280;21441;52.190;20.910;2022-12-18T03:28:14;101745.88;;;-4.12;100.00
35331;BME280;21441;52.190;20.910;2022-12-18T03:30:44;101742.16;;;-4.04;100.00
35331;BME280;21441;52.190;20.910;2022-12-18T03:33:16;101751.91;;;-4.10;100.00
35331;BME280;21441;52.190;20.910;2022-12-18T03:35:45;101761.25;;;-4.03;100.00
35331;BME280;21441;52.190;20.910;2022-12-18T03:38:13;101751.38;;;-3.90;100.00
35331;BME280;21441;52.190;20.910;2022-12-18T03:40:46;101749.88;;;-4.01;100.00
35331;BME280;21441;52.190;20.910;2022-12-18T03:43:22;101746.28;;;-3.95;100.00
35331;BME280;21441;52.190;20.910;2022-12-18T03:45:56;101746.22;;;-3.94;100.00
35331;BME280;21441;52.190;20.910;2022-12-18T03:48:29;101745.84;;;-3.80;100.00
35331;BME280;21441;52.190;20.910;2022-12-18T03:51:01;101746.88;;;-3.85;100.00
35331;BME280;21441;52.190;20.910;2022-12-18T03:53:37;101761.00;;;-3.94;100.00
35331;BME280;21441;52.190;20.910;2022-12-18T03:56:06;101771.72;;;-4.05;100.00
35331;BME280;21441;52.190;20.910;2022-12-18T03:58:38;101766.75;;;-4.14;100.00
35331;BME280;21441;52.190;20.910;2022-12-18T04:01:08;101772.00;;;-4.16;100.00
35331;BME280;21441;52.190;20.910;2022-12-18T04:03:37;101774.19;;;-4.00;100.00
35331;BME280;21441;52.190;20.910;2022-12-18T04:06:06;101778.59;;;-4.02;100.00
35331;BME280;21441;52.190;20.910;2022-12-18T04:08:34;101777.88;;;-4.07;100.00
35331;BME280;21441;52.190;20.910;2022-12-18T04:11:02;101785.09;;;-4.17;100.00
35331;BME280;21441;52.190;20.910;2022-12-18T04:13:32;101798.81;;;-4.10;100.00
35331;BME280;21441;52.190;20.910;2022-12-18T04:16:01;101798.56;;;-4.01;100.00
35331;BME280;21441;52.190;20.910;2022-12-18T04:18:28;101797.75;;;-4.39;100.00
35331;BME280;21441;52.190;20.910;2022-12-18T04:20:56;101812.53;;;-4.40;100.00
35331;BME280;21441;52.190;20.910;2022-12-18T04:23:23;101811.53;;;-4.32;100.00
35331;BME280;21441;52.190;20.910;2022-12-18T04:25:50;101821.00;;;-4.30;100.00
35331;BME280;21441;52.190;20.910;2022-12-18T04:28:17;101821.22;;;-4.39;100.00
35331;BME280;21441;52.190;20.910;2022-12-18T04:30:45;101823.41;;;-4.58;100.00
35331;BME280;21441;52.190;20.910;2022-12-18T04:33:13;101828.84;;;-4.67;100.00
35331;BME280;21441;52.190;20.910;2022-12-18T04:35:41;101828.97;;;-4.73;100.00
35331;BME280;21441;52.190;20.910;2022-12-18T04:38:09;101831.44;;;-4.67;100.00
35331;BME280;21441;52.190;20.910;2022-12-18T04:40:37;101845.94;;;-4.57;100.00
35331;BME280;21441;52.190;20.910;2022-12-18T04:43:04;101836.47;;;-4.60;100.00
35331;BME280;21441;52.190;20.910;2022-12-18T04:45:32;101841.75;;;-4.63;100.00
35331;BME280;21441;52.190;20.910;2022-12-18T04:47:59;101834.69;;;-4.58;100.00
35331;BME280;21441;52.190;20.910;2022-12-18T04:50:29;101830.84;;;-4.80;100.00
35331;BME280;21441;52.190;20.910;2022-12-18T04:52:57;101851.38;;;-4.66;100.00
35331;BME280;21441;52.190;20.910;2022-12-18T04:55:24;101850.28;;;-4.56;100.00
35331;BME280;21441;52.190;20.910;2022-12-18T04:57:51;101855.94;;;-4.76;100.00
35331;BME280;21441;52.190;20.910;2022-12-18T05:00:19;101850.19;;;-4.92;100.00
35331;BME280;21441;52.190;20.910;2022-12-18T05:02:47;101857.94;;;-4.89;100.00
35331;BME280;21441;52.190;20.910;2022-12-18T05:05:14;101864.75;;;-4.83;100.00
35331;BME280;21441;52.190;20.910;2022-12-18T05:07:43;101873.63;;;-4.92;100.00
35331;BME280;21441;52.190;20.910;2022-12-18T05:10:10;101878.16;;;-5.00;100.00
35331;BME280;21441;52.190;20.910;2022-12-18T05:12:37;101871.00;;;-4.90;100.00
35331;BME280;21441;52.190;20.910;2022-12-18T05:15:24;101883.31;;;-4.99;100.00
35331;BME280;21441;52.190;20.910;2022-12-18T05:17:52;101885.84;;;-4.95;100.00
35331;BME280;21441;52.190;20.910;2022-12-18T05:20:20;101889.47;;;-5.03;100.00
35331;BME280;21441;52.190;20.910;2022-12-18T05:22:48;101894.63;;;-5.01;100.00
35331;BME280;21441;52.190;20.910;2022-12-18T05:25:15;101899.97;;;-5.07;100.00
35331;BME280;21441;52.190;20.910;2022-12-18T05:27:44;101900.84;;;-5.07;100.00
35331;BME280;21441;52.190;20.910;2022-12-18T05:30:12;101905.34;;;-5.16;100.00
35331;BME280;21441;52.190;20.910;2022-12-18T05:32:39;101900.75;;;-5.02;100.00
35331;BME280;21441;52.190;20.910;2022-12-18T05:35:11;101910.22;;;-5.00;100.00
35331;BME280;21441;52.190;20.910;2022-12-18T05:37:38;101917.06;;;-4.94;100.00
35331;BME280;21441;52.190;20.910;2022-12-18T05:40:09;101922.28;;;-4.94;100.00
35331;BME280;21441;52.190;20.910;2022-12-18T05:42:36;101918.22;;;-5.09;100.00
35331;BME280;21441;52.190;20.910;2022-12-18T05:45:04;101915.22;;;-4.89;100.00
35331;BME280;21441;52.190;20.910;2022-12-18T05:47:31;101923.03;;;-4.89;100.00
35331;BME280;21441;52.190;20.910;2022-12-18T05:49:58;101913.34;;;-4.82;100.00
35331;BME280;21441;52.190;20.910;2022-12-18T05:52:25;101925.75;;;-4.93;100.00
35331;BME280;21441;52.190;20.910;2022-12-18T05:54:52;101920.53;;;-4.93;100.00
35331;BME280;21441;52.190;20.910;2022-12-18T05:57:21;101930.03;;;-4.92;100.00
35331;BME280;21441;52.190;20.910;2022-12-18T05:59:48;101928.13;;;-4.83;100.00
35331;BME280;21441;52.190;20.910;2022-12-18T06:02:15;101929.78;;;-4.79;100.00
35331;BME280;21441;52.190;20.910;2022-12-18T06:04:42;101924.41;;;-4.71;100.00
35331;BME280;21441;52.190;20.910;2022-12-18T06:07:09;101936.72;;;-4.79;100.00
35331;BME280;21441;52.190;20.910;2022-12-18T06:09:37;101945.63;;;-4.91;100.00
35331;BME280;21441;52.190;20.910;2022-12-18T06:12:04;101953.28;;;-4.83;100.00
35331;BME280;21441;52.190;20.910;2022-12-18T06:14:33;101961.16;;;-4.85;100.00
35331;BME280;21441;52.190;20.910;2022-12-18T06:17:00;101963.69;;;-4.83;100.00
35331;BME280;21441;52.190;20.910;2022-12-18T06:19:27;101980.00;;;-4.73;100.00
35331;BME280;21441;52.190;20.910;2022-12-18T06:21:54;101974.78;;;-4.72;100.00
35331;BME280;21441;52.190;20.910;2022-12-18T06:24:23;101974.09;;;-4.82;100.00
35331;BME280;21441;52.190;20.910;2022-12-18T06:26:50;101976.81;;;-4.88;100.00
35331;BME280;21441;52.190;20.910;2022-12-18T06:29:18;101983.59;;;-4.79;100.00
35331;BME280;21441;52.190;20.910;2022-12-18T06:31:46;101990.41;;;-4.72;100.00
35331;BME280;21441;52.190;20.910;2022-12-18T06:34:13;101991.16;;;-4.67;100.00
35331;BME280;21441;52.190;20.910;2022-12-18T06:36:40;101998.16;;;-4.69;100.00
35331;BME280;21441;52.190;20.910;2022-12-18T06:39:07;102001.56;;;-4.65;100.00
35331;BME280;21441;52.190;20.910;2022-12-18T06:41:34;101999.94;;;-4.72;100.00
35331;BME280;21441;52.190;20.910;2022-12-18T06:44:02;102011.09;;;-4.66;100.00
35331;BME280;21441;52.190;20.910;2022-12-18T06:46:29;102020.63;;;-4.63;100.00
35331;BME280;21441;52.190;20.910;2022-12-18T06:48:59;102024.25;;;-4.72;100.00
35331;BME280;21441;52.190;20.910;2022-12-18T06:51:26;102021.66;;;-4.72;100.00
35331;BME280;21441;52.190;20.910;2022-12-18T06:53:53;102043.38;;;-4.73;100.00
35331;BME280;21441;52.190;20.910;2022-12-18T06:56:20;102031.69;;;-4.53;100.00
35331;BME280;21441;52.190;20.910;2022-12-18T06:58:48;102036.69;;;-4.41;100.00
35331;BME280;21441;52.190;20.910;2022-12-18T07:01:15;102040.00;;;-4.34;100.00
35331;BME280;21441;52.190;20.910;2022-12-18T07:03:42;102040.06;;;-4.38;100.00
35331;BME280;21441;52.190;20.910;2022-12-18T07:06:15;102043.72;;;-4.46;100.00
35331;BME280;21441;52.190;20.910;2022-12-18T07:08:43;102045.13;;;-4.30;100.00
35331;BME280;21441;52.190;20.910;2022-12-18T07:11:10;102046.94;;;-4.33;100.00
35331;BME280;21441;52.190;20.910;2022-12-18T07:13:38;102047.88;;;-4.38;100.00
35331;BME280;21441;52.190;20.910;2022-12-18T07:16:06;102059.97;;;-4.33;100.00
35331;BME280;21441;52.190;20.910;2022-12-18T07:18:34;102062.75;;;-4.43;100.00
35331;BME280;21441;52.190;20.910;2022-12-18T07:21:05;102058.19;;;-4.33;100.00
35331;BME280;21441;52.190;20.910;2022-12-18T07:23:35;102068.53;;;-4.28;100.00
35331;BME280;21441;52.190;20.910;2022-12-18T07:26:02;102063.06;;;-4.16;100.00
35331;BME280;21441;52.190;20.910;2022-12-18T07:28:30;102057.97;;;-4.21;100.00
35331;BME280;21441;52.190;20.910;2022-12-18T07:30:58;102064.50;;;-4.01;100.00
35331;BME280;21441;52.190;20.910;2022-12-18T07:33:25;102062.84;;;-4.04;100.00
35331;BME280;21441;52.190;20.910;2022-12-18T07:35:52;102076.19;;;-4.19;100.00
35331;BME280;21441;52.190;20.910;2022-12-18T07:38:20;102077.75;;;-4.10;100.00
35331;BME280;21441;52.190;20.910;2022-12-18T07:40:49;102092.56;;;-4.14;100.00
35331;BME280;21441;52.190;20.910;2022-12-18T07:43:16;102095.00;;;-4.05;100.00
35331;BME280;21441;52.190;20.910;2022-12-18T07:45:43;102097.47;;;-3.99;100.00
35331;BME280;21441;52.190;20.910;2022-12-18T07:48:10;102091.22;;;-3.91;100.00
35331;BME280;21441;52.190;20.910;2022-12-18T07:50:37;102101.63;;;-3.90;100.00
35331;BME280;21441;52.190;20.910;2022-12-18T07:53:05;102106.00;;;-3.90;100.00
35331;BME280;21441;52.190;20.910;2022-12-18T07:55:32;102098.00;;;-3.83;100.00
35331;BME280;21441;52.190;20.910;2022-12-18T07:58:04;102112.88;;;-3.86;100.00
35331;BME280;21441;52.190;20.910;2022-12-18T08:00:31;102108.50;;;-3.86;100.00
35331;BME280;21441;52.190;20.910;2022-12-18T08:02:58;102129.91;;;-3.71;100.00
35331;BME280;21441;52.190;20.910;2022-12-18T08:05:25;102129.41;;;-3.89;100.00
35331;BME280;21441;52.190;20.910;2022-12-18T08:07:53;102130.34;;;-3.91;100.00
35331;BME280;21441;52.190;20.910;2022-12-18T08:10:20;102121.41;;;-3.80;100.00
35331;BME280;21441;52.190;20.910;2022-12-18T08:12:49;102142.34;;;-3.83;100.00
35331;BME280;21441;52.190;20.910;2022-12-18T08:15:18;102142.66;;;-4.00;100.00
35331;BME280;21441;52.190;20.910;2022-12-18T08:17:45;102149.59;;;-3.97;100.00
35331;BME280;21441;52.190;20.910;2022-12-18T08:20:12;102151.28;;;-3.95;100.00
35331;BME280;21441;52.190;20.910;2022-12-18T08:22:41;102155.66;;;-3.97;100.00
35331;BME280;21441;52.190;20.910;2022-12-18T08:25:08;102166.53;;;-3.76;100.00
35331;BME280;21441;52.190;20.910;2022-12-18T08:27:36;102171.03;;;-3.83;100.00
35331;BME280;21441;52.190;20.910;2022-12-18T08:30:04;102163.19;;;-3.83;100.00
35331;BME280;21441;52.190;20.910;2022-12-18T08:32:33;102168.28;;;-3.77;100.00
35331;BME280;21441;52.190;20.910;2022-12-18T08:34:59;102173.41;;;-3.72;100.00
35331;BME280;21441;52.190;20.910;2022-12-18T08:37:27;102179.25;;;-4.03;100.00
35331;BME280;21441;52.190;20.910;2022-12-18T08:39:54;102188.19;;;-4.16;100.00
35331;BME280;21441;52.190;20.910;2022-12-18T08:42:21;102180.28;;;-4.11;100.00
35331;BME280;21441;52.190;20.910;2022-12-18T08:45:06;102182.34;;;-4.27;100.00
35331;BME280;21441;52.190;20.910;2022-12-18T08:47:35;102173.31;;;-4.56;100.00
35331;BME280;21441;52.190;20.910;2022-12-18T08:50:02;102179.63;;;-4.69;100.00
35331;BME280;21441;52.190;20.910;2022-12-18T08:52:31;102192.66;;;-4.72;100.00
35331;BME280;21441;52.190;20.910;2022-12-18T08:54:58;102188.13;;;-4.61;100.00
35331;BME280;21441;52.190;20.910;2022-12-18T08:57:25;102191.25;;;-4.41;100.00
35331;BME280;21441;52.190;20.910;2022-12-18T08:59:52;102187.28;;;-4.13;100.00
35331;BME280;21441;52.190;20.910;2022-12-18T09:02:20;102186.31;;;-4.08;100.00
35331;BME280;21441;52.190;20.910;2022-12-18T09:04:48;102192.97;;;-4.40;100.00
35331;BME280;21441;52.190;20.910;2022-12-18T09:07:15;102199.13;;;-4.44;100.00
35331;BME280;21441;52.190;20.910;2022-12-18T09:09:42;102205.97;;;-4.37;100.00
35331;BME280;21441;52.190;20.910;2022-12-18T09:12:10;102205.50;;;-4.62;100.00
35331;BME280;21441;52.190;20.910;2022-12-18T09:14:37;102211.34;;;-4.47;100.00
35331;BME280;21441;52.190;20.910;2022-12-18T09:17:04;102215.19;;;-4.19;100.00
35331;BME280;21441;52.190;20.910;2022-12-18T09:19:32;102216.59;;;-4.02;100.00
35331;BME280;21441;52.190;20.910;2022-12-18T09:22:01;102217.22;;;-4.34;100.00
35331;BME280;21441;52.190;20.910;2022-12-18T09:24:28;102217.84;;;-4.73;100.00
35331;BME280;21441;52.190;20.910;2022-12-18T09:26:55;102214.03;;;-4.52;100.00
35331;BME280;21441;52.190;20.910;2022-12-18T09:29:22;102222.44;;;-4.34;100.00
35331;BME280;21441;52.190;20.910;2022-12-18T09:31:49;102216.09;;;-4.21;100.00
35331;BME280;21441;52.190;20.910;2022-12-18T09:34:16;102220.53;;;-4.26;100.00
35331;BME280;21441;52.190;20.910;2022-12-18T09:36:44;102222.63;;;-4.47;100.00
35331;BME280;21441;52.190;20.910;2022-12-18T09:39:12;102228.78;;;-4.52;100.00
35331;BME280;21441;52.190;20.910;2022-12-18T09:41:43;102219.44;;;-4.64;100.00
35331;BME280;21441;52.190;20.910;2022-12-18T09:44:18;102212.81;;;-4.82;100.00
35331;BME280;21441;52.190;20.910;2022-12-18T09:46:51;102210.53;;;-4.49;100.00
35331;BME280;21441;52.190;20.910;2022-12-18T09:49:23;102216.66;;;-4.53;100.00
35331;BME280;21441;52.190;20.910;2022-12-18T09:51:55;102224.84;;;-4.77;100.00
35331;BME280;21441;52.190;20.910;2022-12-18T09:54:28;102231.53;;;-4.60;100.00
35331;BME280;21441;52.190;20.910;2022-12-18T09:56:59;102228.75;;;-4.49;100.00
35331;BME280;21441;52.190;20.910;2022-12-18T09:59:30;102217.34;;;-4.44;100.00
35331;BME280;21441;52.190;20.910;2022-12-18T10:01:59;102228.63;;;-4.42;100.00
35331;BME280;21441;52.190;20.910;2022-12-18T10:04:28;102228.59;;;-4.40;100.00
35331;BME280;21441;52.190;20.910;2022-12-18T10:07:01;102232.50;;;-4.16;100.00
35331;BME280;21441;52.190;20.910;2022-12-18T10:09:38;102241.66;;;-3.94;100.00
35331;BME280;21441;52.190;20.910;2022-12-18T10:12:17;102240.63;;;-3.85;100.00
35331;BME280;21441;52.190;20.910;2022-12-18T10:14:52;102240.28;;;-3.68;100.00
35331;BME280;21441;52.190;20.910;2022-12-18T10:17:27;102241.81;;;-3.58;100.00
35331;BME280;21441;52.190;20.910;2022-12-18T10:20:00;102235.16;;;-3.72;100.00
35331;BME280;21441;52.190;20.910;2022-12-18T10:22:42;102248.03;;;-3.63;100.00
35331;BME280;21441;52.190;20.910;2022-12-18T10:25:21;102243.72;;;-3.66;100.00
35331;BME280;21441;52.190;20.910;2022-12-18T10:27:52;102233.75;;;-3.47;100.00
35331;BME280;21441;52.190;20.910;2022-12-18T10:30:21;102237.44;;;-3.56;100.00
35331;BME280;21441;52.190;20.910;2022-12-18T10:32:49;102246.38;;;-3.69;100.00
35331;BME280;21441;52.190;20.910;2022-12-18T10:35:18;102240.50;;;-3.80;100.00
35331;BME280;21441;52.190;20.910;2022-12-18T10:38:00;102240.06;;;-4.01;100.00
35331;BME280;21441;52.190;20.910;2022-12-18T10:40:28;102248.00;;;-4.08;100.00
35331;BME280;21441;52.190;20.910;2022-12-18T10:43:11;102233.94;;;-4.00;100.00
35331;BME280;21441;52.190;20.910;2022-12-18T10:45:39;102233.25;;;-4.08;100.00
35331;BME280;21441;52.190;20.910;2022-12-18T10:48:18;102230.28;;;-3.91;100.00
35331;BME280;21441;52.190;20.910;2022-12-18T10:50:48;102233.16;;;-3.60;100.00
35331;BME280;21441;52.190;20.910;2022-12-18T10:53:19;102225.47;;;-3.67;100.00
35331;BME280;21441;52.190;20.910;2022-12-18T10:55:50;102227.47;;;-3.80;100.00
35331;BME280;21441;52.190;20.910;2022-12-18T10:58:26;102237.63;;;-4.10;100.00
35331;BME280;21441;52.190;20.910;2022-12-18T11:01:09;102234.19;;;-4.12;100.00
35331;BME280;21441;52.190;20.910;2022-12-18T11:03:40;102243.81;;;-3.70;100.00
35331;BME280;21441;52.190;20.910;2022-12-18T11:06:09;102245.41;;;-3.23;100.00
35331;BME280;21441;52.190;20.910;2022-12-18T11:08:37;102241.50;;;-3.03;100.00
35331;BME280;21441;52.190;20.910;2022-12-18T11:11:15;102236.59;;;-2.78;100.00
35331;BME280;21441;52.190;20.910;2022-12-18T11:13:56;102236.72;;;-2.49;100.00
35331;BME280;21441;52.190;20.910;2022-12-18T11:16:25;102235.50;;;-3.07;100.00
35331;BME280;21441;52.190;20.910;2022-12-18T11:18:52;102234.34;;;-2.94;100.00
35331;BME280;21441;52.190;20.910;2022-12-18T11:21:19;102238.25;;;-3.13;100.00
35331;BME280;21441;52.190;20.910;2022-12-18T11:23:50;102236.22;;;-3.39;100.00
35331;BME280;21441;52.190;20.910;2022-12-18T11:26:19;102247.78;;;-3.11;100.00
35331;BME280;21441;52.190;20.910;2022-12-18T11:28:50;102244.44;;;-2.80;100.00
35331;BME280;21441;52.190;20.910;2022-12-18T11:31:21;102243.69;;;-2.49;100.00
35331;BME280;21441;52.190;20.910;2022-12-18T11:33:54;102241.03;;;-2.13;100.00
35331;BME280;21441;52.190;20.910;2022-12-18T11:36:23;102248.72;;;-1.76;100.00
35331;BME280;21441;52.190;20.910;2022-12-18T11:38:52;102234.16;;;-1.53;100.00
35331;BME280;21441;52.190;20.910;2022-12-18T11:41:23;102252.75;;;-1.62;100.00
35331;BME280;21441;52.190;20.910;2022-12-18T11:44:15;102241.41;;;-1.63;100.00
35331;BME280;21441;52.190;20.910;2022-12-18T11:46:47;102235.31;;;-1.63;100.00
35331;BME280;21441;52.190;20.910;2022-12-18T11:49:21;102243.81;;;-1.26;100.00
35331;BME280;21441;52.190;20.910;2022-12-18T11:51:53;102235.78;;;-0.38;100.00
35331;BME280;21441;52.190;20.910;2022-12-18T11:54:23;102239.81;;;0.23;100.00
35331;BME280;21441;52.190;20.910;2022-12-18T11:56:56;102248.84;;;-0.11;100.00
35331;BME280;21441;52.190;20.910;2022-12-18T11:59:33;102242.63;;;-0.34;100.00
35331;BME280;21441;52.190;20.910;2022-12-18T12:02:19;102242.25;;;-0.48;100.00
35331;BME280;21441;52.190;20.910;2022-12-18T12:05:05;102252.25;;;0.41;93.83
35331;BME280;21441;52.190;20.910;2022-12-18T12:07:43;102252.81;;;-0.25;93.71
35331;BME280;21441;52.190;20.910;2022-12-18T12:10:27;102257.06;;;-0.47;97.40
35331;BME280;21441;52.190;20.910;2022-12-18T12:13:12;102262.25;;;-0.72;98.97
35331;BME280;21441;52.190;20.910;2022-12-18T12:15:52;102249.47;;;-1.39;100.00
35331;BME280;21441;52.190;20.910;2022-12-18T12:18:28;102263.22;;;-1.62;100.00
35331;BME280;21441;52.190;20.910;2022-12-18T12:21:03;102259.84;;;-1.68;100.00
35331;BME280;21441;52.190;20.910;2022-12-18T12:23:40;102263.41;;;-1.70;100.00
35331;BME280;21441;52.190;20.910;2022-12-18T12:26:15;102261.84;;;-1.44;100.00
35331;BME280;21441;52.190;20.910;2022-12-18T12:29:01;102261.41;;;-1.31;100.00
35331;BME280;21441;52.190;20.910;2022-12-18T12:31:40;102275.56;;;-1.68;100.00
35331;BME280;21441;52.190;20.910;2022-12-18T12:34:17;102282.41;;;-1.32;100.00
35331;BME280;21441;52.190;20.910;2022-12-18T12:36:56;102280.69;;;-1.96;100.00
35331;BME280;21441;52.190;20.910;2022-12-18T12:39:31;102295.19;;;-2.17;100.00
35331;BME280;21441;52.190;20.910;2022-12-18T12:42:00;102299.75;;;-2.61;100.00
35331;BME280;21441;52.190;20.910;2022-12-18T12:44:50;102294.78;;;-2.36;100.00
35331;BME280;21441;52.190;20.910;2022-12-18T12:47:20;102290.72;;;-2.13;100.00